Aviation Digital Data Service (ADDS)

Output produced by METARs form (1700 UTC 16 June 2019)
found at http://www.aviationweather.gov/metar/data/
 
METAR text: UACK 161500Z 19003MPS CAVOK 13/09 Q1007 R20/090070 NOSIG RMK QFE732/0976
Conditions at: UACK (KOKSHETAU , KZ) observed 1500 UTC 16 June 2019
Temperature: 13.0°C (55°F)
Dewpoint: 9.0°C (48°F) [RH = 77%]
Pressure (altimeter): 29.73 inches Hg (1007.0 mb)
Winds: from the S (190 degrees) at 7 MPH (6 knots; 3.1 m/s)
Visibility: 6 or more miles (10+ km)
Ceiling: ceiling and visibility are OK
Clouds: unknown
Weather: no significant weather observed at this time

METAR text: UACK 161430Z 18004MPS CAVOK 14/09 Q1007 R20/090070 NOSIG RMK QFE732/0976
Conditions at: UACK (KOKSHETAU , KZ) observed 1430 UTC 16 June 2019
Temperature: 14.0°C (57°F)
Dewpoint: 9.0°C (48°F) [RH = 72%]
Pressure (altimeter): 29.73 inches Hg (1007.0 mb)
Winds: from the S (180 degrees) at 9 MPH (8 knots; 4.1 m/s)
Visibility: 6 or more miles (10+ km)
Ceiling: ceiling and visibility are OK
Clouds: unknown
Weather: no significant weather observed at this time

METAR text: UACK 161400Z 21004MPS CAVOK 15/08 Q1007 R20/090070 NOSIG RMK QFE732/0976
Conditions at: UACK (KOKSHETAU , KZ) observed 1400 UTC 16 June 2019
Temperature: 15.0°C (59°F)
Dewpoint: 8.0°C (46°F) [RH = 63%]
Pressure (altimeter): 29.73 inches Hg (1007.0 mb)
Winds: from the SSW (210 degrees) at 9 MPH (8 knots; 4.1 m/s)
Visibility: 6 or more miles (10+ km)
Ceiling: ceiling and visibility are OK
Clouds: unknown
Weather: no significant weather observed at this time

METAR text: UACK 161330Z 18003MPS CAVOK 14/09 Q1007 R20/090070 TEMPO VRB17MPS 3100 TSRA SQ BKN006 BKN010CB RMK QFE732/0976
Conditions at: UACK (KOKSHETAU , KZ) observed 1330 UTC 16 June 2019
Temperature: 14.0°C (57°F)
Dewpoint: 9.0°C (48°F) [RH = 72%]
Pressure (altimeter): 29.73 inches Hg (1007.0 mb)
Winds: from the S (180 degrees) at 7 MPH (6 knots; 3.1 m/s)
Visibility: 6 or more miles (10+ km)
Ceiling: ceiling and visibility are OK
Clouds: unknown
Weather: no significant weather observed at this time

METAR text: UACK 161300Z 21005MPS 9999 BKN036CB BKN100 13/09 Q1007 R20/090070 TEMPO VRB17MPS 3100 TSRA SQ BKN006 BKN010CB RMK QFE732/0976
Conditions at: UACK (KOKSHETAU , KZ) observed 1300 UTC 16 June 2019
Temperature: 13.0°C (55°F)
Dewpoint: 9.0°C (48°F) [RH = 77%]
Pressure (altimeter): 29.73 inches Hg (1007.0 mb)
Winds: from the SSW (210 degrees) at 12 MPH (10 knots; 5.1 m/s)
Visibility: 6 or more miles (10+ km)
Ceiling: 3600 feet AGL
Clouds: broken clouds at 3600 feet AGL
broken clouds at 10000 feet AGL
Weather: no significant weather observed at this time

METAR text: UACK 161230Z 26007MPS 9999 -SHRA OVC017CB 14/07 Q1008 R20/090070 TEMPO VRB17MPS 3100 TSRA SQ BKN006 BKN010CB RMK QFE732/0976
Conditions at: UACK (KOKSHETAU , KZ) observed 1230 UTC 16 June 2019
Temperature: 14.0°C (57°F)
Dewpoint: 7.0°C (45°F) [RH = 63%]
Pressure (altimeter): 29.76 inches Hg (1008.0 mb)
Winds: from the W (260 degrees) at 16 MPH (14 knots; 7.2 m/s)
Visibility: 6 or more miles (10+ km)
Ceiling: 1700 feet AGL
Clouds: overcast cloud deck at 1700 feet AGL
Weather: -SHRA  (light rain showers)

METAR text: UACK 161200Z 30003MPS 9999 SCT017CB BKN083 16/06 Q1007 R20/090070 NOSIG RMK QFE732/0976
Conditions at: UACK (KOKSHETAU , KZ) observed 1200 UTC 16 June 2019
Temperature: 16.0°C (61°F)
Dewpoint: 6.0°C (43°F) [RH = 51%]
Pressure (altimeter): 29.73 inches Hg (1007.0 mb)
Winds: from the WNW (300 degrees) at 7 MPH (6 knots; 3.1 m/s)
Visibility: 6 or more miles (10+ km)
Ceiling: 8300 feet AGL
Clouds: scattered clouds at 1700 feet AGL
broken clouds at 8300 feet AGL
Weather: no significant weather observed at this time

METAR text: UACK 161130Z 29004MPS 240V330 9999 SCT025CB BKN120 17/04 Q1007 R20/090070 TEMPO VRB17MPS 3100 TSRA SQ BKN010CB RMK QFE732/0976
Conditions at: UACK (KOKSHETAU , KZ) observed 1130 UTC 16 June 2019
Temperature: 17.0°C (63°F)
Dewpoint: 4.0°C (39°F) [RH = 42%]
Pressure (altimeter): 29.73 inches Hg (1007.0 mb)
Winds: from the WNW (290 degrees) at 9 MPH (8 knots; 4.1 m/s)
Visibility: 6 or more miles (10+ km)
Ceiling: 12000 feet AGL
Clouds: scattered clouds at 2500 feet AGL
broken clouds at 12000 feet AGL
Weather: no significant weather observed at this time

METAR text: UACK 161100Z 33006MPS 9999 SCT025CB BKN110 17/06 Q1007 R20/090070 TEMPO VRB17MPS 4000 TSRA BKN010CB RMK QFE732/0976
Conditions at: UACK (KOKSHETAU , KZ) observed 1100 UTC 16 June 2019
Temperature: 17.0°C (63°F)
Dewpoint: 6.0°C (43°F) [RH = 48%]
Pressure (altimeter): 29.73 inches Hg (1007.0 mb)
Winds: from the NNW (330 degrees) at 14 MPH (12 knots; 6.2 m/s)
Visibility: 6 or more miles (10+ km)
Ceiling: 11000 feet AGL
Clouds: scattered clouds at 2500 feet AGL
broken clouds at 11000 feet AGL
Weather: no significant weather observed at this time

METAR text: UACK 161030Z 27005MPS 240V310 CAVOK 17/05 Q1007 R20/090070 NOSIG RMK QFE732/0976
Conditions at: UACK (KOKSHETAU , KZ) observed 1030 UTC 16 June 2019
Temperature: 17.0°C (63°F)
Dewpoint: 5.0°C (41°F) [RH = 45%]
Pressure (altimeter): 29.73 inches Hg (1007.0 mb)
Winds: from the W (270 degrees) at 12 MPH (10 knots; 5.1 m/s)
Visibility: 6 or more miles (10+ km)
Ceiling: ceiling and visibility are OK
Clouds: unknown
Weather: no significant weather observed at this time

METAR text: UACK 161000Z 27006MPS 240V310 CAVOK 17/03 Q1007 R20/090070 NOSIG RMK QFE732/0976
Conditions at: UACK (KOKSHETAU , KZ) observed 1000 UTC 16 June 2019
Temperature: 17.0°C (63°F)
Dewpoint: 3.0°C (37°F) [RH = 39%]
Pressure (altimeter): 29.73 inches Hg (1007.0 mb)
Winds: from the W (270 degrees) at 14 MPH (12 knots; 6.2 m/s)
Visibility: 6 or more miles (10+ km)
Ceiling: ceiling and visibility are OK
Clouds: unknown
Weather: no significant weather observed at this time

METAR text: UACK 160930Z 27005MPS 240V300 CAVOK 17/04 Q1007 R20/090070 NOSIG RMK QFE732/0976
Conditions at: UACK (KOKSHETAU , KZ) observed 0930 UTC 16 June 2019
Temperature: 17.0°C (63°F)
Dewpoint: 4.0°C (39°F) [RH = 42%]
Pressure (altimeter): 29.73 inches Hg (1007.0 mb)
Winds: from the W (270 degrees) at 12 MPH (10 knots; 5.1 m/s)
Visibility: 6 or more miles (10+ km)
Ceiling: ceiling and visibility are OK
Clouds: unknown
Weather: no significant weather observed at this time

METAR text: UACK 160900Z 29007MPS 240V320 9999 BKN019CB BKN083 14/06 Q1008 R20/090070 NOSIG RMK QFE732/0976
Conditions at: UACK (KOKSHETAU , KZ) observed 0900 UTC 16 June 2019
Temperature: 14.0°C (57°F)
Dewpoint: 6.0°C (43°F) [RH = 58%]
Pressure (altimeter): 29.76 inches Hg (1008.0 mb)
Winds: from the WNW (290 degrees) at 16 MPH (14 knots; 7.2 m/s)
Visibility: 6 or more miles (10+ km)
Ceiling: 1900 feet AGL
Clouds: broken clouds at 1900 feet AGL
broken clouds at 8300 feet AGL
Weather: no significant weather observed at this time

METAR text: UACK 160830Z 26009G14MPS 230V290 9999 -RA BKN061 BKN086 17/03 Q1007 R20/090070 NOSIG RMK QFE732/0976
Conditions at: UACK (KOKSHETAU , KZ) observed 0830 UTC 16 June 2019
Temperature: 17.0°C (63°F)
Dewpoint: 3.0°C (37°F) [RH = 39%]
Pressure (altimeter): 29.73 inches Hg (1007.0 mb)
Winds: from the W (260 degrees) at 20 MPH (17 knots; 8.7 m/s)
gusting to 31 MPH (27 knots; 13.9 m/s)
Visibility: 6 or more miles (10+ km)
Ceiling: 6100 feet AGL
Clouds: broken clouds at 6100 feet AGL
broken clouds at 8600 feet AGL
Weather: -RA  (light rain)

METAR text: UACK 160800Z 26005MPS 230V290 CAVOK 17/01 Q1007 R20/090070 NOSIG RMK QFE732/0976
Conditions at: UACK (KOKSHETAU , KZ) observed 0800 UTC 16 June 2019
Temperature: 17.0°C (63°F)
Dewpoint: 1.0°C (34°F) [RH = 34%]
Pressure (altimeter): 29.73 inches Hg (1007.0 mb)
Winds: from the W (260 degrees) at 12 MPH (10 knots; 5.1 m/s)
Visibility: 6 or more miles (10+ km)
Ceiling: ceiling and visibility are OK
Clouds: unknown
Weather: no significant weather observed at this time

METAR text: UACK 160730Z 27006MPS 230V320 CAVOK 18/02 Q1007 R20/090070 NOSIG RMK QFE732/0976
Conditions at: UACK (KOKSHETAU , KZ) observed 0730 UTC 16 June 2019
Temperature: 18.0°C (64°F)
Dewpoint: 2.0°C (36°F) [RH = 34%]
Pressure (altimeter): 29.73 inches Hg (1007.0 mb)
Winds: from the W (270 degrees) at 14 MPH (12 knots; 6.2 m/s)
Visibility: 6 or more miles (10+ km)
Ceiling: ceiling and visibility are OK
Clouds: unknown
Weather: no significant weather observed at this time

METAR text: UACK 160700Z 27005MPS 220V310 CAVOK 18/00 Q1007 R20/090070 NOSIG RMK QFE732/0976
Conditions at: UACK (KOKSHETAU , KZ) observed 0700 UTC 16 June 2019
Temperature: 18.0°C (64°F)
Dewpoint: 0.0°C (32°F) [RH = 30%]
Pressure (altimeter): 29.73 inches Hg (1007.0 mb)
Winds: from the W (270 degrees) at 12 MPH (10 knots; 5.1 m/s)
Visibility: 6 or more miles (10+ km)
Ceiling: ceiling and visibility are OK
Clouds: unknown
Weather: no significant weather observed at this time

METAR text: UACK 160630Z 27006MPS 230V320 CAVOK 19/03 Q1007 R20/090070 NOSIG RMK QFE732/0976
Conditions at: UACK (KOKSHETAU , KZ) observed 0630 UTC 16 June 2019
Temperature: 19.0°C (66°F)
Dewpoint: 3.0°C (37°F) [RH = 34%]
Pressure (altimeter): 29.73 inches Hg (1007.0 mb)
Winds: from the W (270 degrees) at 14 MPH (12 knots; 6.2 m/s)
Visibility: 6 or more miles (10+ km)
Ceiling: ceiling and visibility are OK
Clouds: unknown
Weather: no significant weather observed at this time

METAR text: UACK 160600Z 30006MPS 270V330 CAVOK 17/02 Q1007 R20/090070 NOSIG RMK QFE732/0976
Conditions at: UACK (KOKSHETAU , KZ) observed 0600 UTC 16 June 2019
Temperature: 17.0°C (63°F)
Dewpoint: 2.0°C (36°F) [RH = 36%]
Pressure (altimeter): 29.73 inches Hg (1007.0 mb)
Winds: from the WNW (300 degrees) at 14 MPH (12 knots; 6.2 m/s)
Visibility: 6 or more miles (10+ km)
Ceiling: ceiling and visibility are OK
Clouds: unknown
Weather: no significant weather observed at this time

METAR text: UACK 160530Z 29006MPS CAVOK 16/03 Q1007 R20/090070 NOSIG RMK QFE732/0976
Conditions at: UACK (KOKSHETAU , KZ) observed 0530 UTC 16 June 2019
Temperature: 16.0°C (61°F)
Dewpoint: 3.0°C (37°F) [RH = 42%]
Pressure (altimeter): 29.73 inches Hg (1007.0 mb)
Winds: from the WNW (290 degrees) at 14 MPH (12 knots; 6.2 m/s)
Visibility: 6 or more miles (10+ km)
Ceiling: ceiling and visibility are OK
Clouds: unknown
Weather: no significant weather observed at this time

METAR text: UACK 160500Z 28005MPS 240V320 CAVOK 17/03 Q1007 R20/090070 NOSIG RMK QFE732/0976
Conditions at: UACK (KOKSHETAU , KZ) observed 0500 UTC 16 June 2019
Temperature: 17.0°C (63°F)
Dewpoint: 3.0°C (37°F) [RH = 39%]
Pressure (altimeter): 29.73 inches Hg (1007.0 mb)
Winds: from the W (280 degrees) at 12 MPH (10 knots; 5.1 m/s)
Visibility: 6 or more miles (10+ km)
Ceiling: ceiling and visibility are OK
Clouds: unknown
Weather: no significant weather observed at this time

METAR text: UACK 160430Z 28005MPS 240V300 CAVOK 17/03 Q1008 R02/090070 NOSIG RMK QFE732/0976
Conditions at: UACK (KOKSHETAU , KZ) observed 0430 UTC 16 June 2019
Temperature: 17.0°C (63°F)
Dewpoint: 3.0°C (37°F) [RH = 39%]
Pressure (altimeter): 29.76 inches Hg (1008.0 mb)
Winds: from the W (280 degrees) at 12 MPH (10 knots; 5.1 m/s)
Visibility: 6 or more miles (10+ km)
Ceiling: ceiling and visibility are OK
Clouds: unknown
Weather: no significant weather observed at this time

METAR text: UACK 160400Z 27005MPS CAVOK 16/03 Q1008 R02/090070 NOSIG RMK QFE732/0976
Conditions at: UACK (KOKSHETAU , KZ) observed 0400 UTC 16 June 2019
Temperature: 16.0°C (61°F)
Dewpoint: 3.0°C (37°F) [RH = 42%]
Pressure (altimeter): 29.76 inches Hg (1008.0 mb)
Winds: from the W (270 degrees) at 12 MPH (10 knots; 5.1 m/s)
Visibility: 6 or more miles (10+ km)
Ceiling: ceiling and visibility are OK
Clouds: unknown
Weather: no significant weather observed at this time

METAR text: UACK 160330Z 26004MPS 230V300 CAVOK 16/04 Q1008 R02/090070 NOSIG RMK QFE732/0976
Conditions at: UACK (KOKSHETAU , KZ) observed 0330 UTC 16 June 2019
Temperature: 16.0°C (61°F)
Dewpoint: 4.0°C (39°F) [RH = 45%]
Pressure (altimeter): 29.76 inches Hg (1008.0 mb)
Winds: from the W (260 degrees) at 9 MPH (8 knots; 4.1 m/s)
Visibility: 6 or more miles (10+ km)
Ceiling: ceiling and visibility are OK
Clouds: unknown
Weather: no significant weather observed at this time

METAR text: UACK 160300Z 25004MPS CAVOK 15/04 Q1008 R02/090070 NOSIG RMK QFE732/0976
Conditions at: UACK (KOKSHETAU , KZ) observed 0300 UTC 16 June 2019
Temperature: 15.0°C (59°F)
Dewpoint: 4.0°C (39°F) [RH = 48%]
Pressure (altimeter): 29.76 inches Hg (1008.0 mb)
Winds: from the WSW (250 degrees) at 9 MPH (8 knots; 4.1 m/s)
Visibility: 6 or more miles (10+ km)
Ceiling: ceiling and visibility are OK
Clouds: unknown
Weather: no significant weather observed at this time

METAR text: UACK 160230Z 26003MPS 220V300 CAVOK 14/05 Q1008 R02/090070 NOSIG RMK QFE732/0976
Conditions at: UACK (KOKSHETAU , KZ) observed 0230 UTC 16 June 2019
Temperature: 14.0°C (57°F)
Dewpoint: 5.0°C (41°F) [RH = 55%]
Pressure (altimeter): 29.76 inches Hg (1008.0 mb)
Winds: from the W (260 degrees) at 7 MPH (6 knots; 3.1 m/s)
Visibility: 6 or more miles (10+ km)
Ceiling: ceiling and visibility are OK
Clouds: unknown
Weather: no significant weather observed at this time

METAR text: UACK 160200Z 23003MPS 190V250 CAVOK 12/06 Q1008 R02/090070 NOSIG RMK QFE732/0976
Conditions at: UACK (KOKSHETAU , KZ) observed 0200 UTC 16 June 2019
Temperature: 12.0°C (54°F)
Dewpoint: 6.0°C (43°F) [RH = 67%]
Pressure (altimeter): 29.76 inches Hg (1008.0 mb)
Winds: from the SW (230 degrees) at 7 MPH (6 knots; 3.1 m/s)
Visibility: 6 or more miles (10+ km)
Ceiling: ceiling and visibility are OK
Clouds: unknown
Weather: no significant weather observed at this time

METAR text: UACK 160130Z 23002MPS 210V270 CAVOK 10/05 Q1008 R02/090070 NOSIG RMK QFE732/0976
Conditions at: UACK (KOKSHETAU , KZ) observed 0130 UTC 16 June 2019
Temperature: 10.0°C (50°F)
Dewpoint: 5.0°C (41°F) [RH = 71%]
Pressure (altimeter): 29.76 inches Hg (1008.0 mb)
Winds: from the SW (230 degrees) at 5 MPH (4 knots; 2.1 m/s)
Visibility: 6 or more miles (10+ km)
Ceiling: ceiling and visibility are OK
Clouds: unknown
Weather: no significant weather observed at this time

METAR text: UACK 160100Z 22002MPS CAVOK 07/05 Q1007 R02/090070 NOSIG RMK QFE732/0976
Conditions at: UACK (KOKSHETAU , KZ) observed 0100 UTC 16 June 2019
Temperature: 7.0°C (45°F)
Dewpoint: 5.0°C (41°F) [RH = 87%]
Pressure (altimeter): 29.73 inches Hg (1007.0 mb)
Winds: from the SW (220 degrees) at 5 MPH (4 knots; 2.1 m/s)
Visibility: 6 or more miles (10+ km)
Ceiling: ceiling and visibility are OK
Clouds: unknown
Weather: no significant weather observed at this time

METAR text: UACK 160030Z 20002MPS CAVOK 06/04 Q1007 R02/090070 NOSIG RMK QFE732/0976
Conditions at: UACK (KOKSHETAU , KZ) observed 0030 UTC 16 June 2019
Temperature: 6.0°C (43°F)
Dewpoint: 4.0°C (39°F) [RH = 87%]
Pressure (altimeter): 29.73 inches Hg (1007.0 mb)
Winds: from the SSW (200 degrees) at 5 MPH (4 knots; 2.1 m/s)
Visibility: 6 or more miles (10+ km)
Ceiling: ceiling and visibility are OK
Clouds: unknown
Weather: no significant weather observed at this time

METAR text: UACK 160000Z 23003MPS CAVOK 04/02 Q1007 R02/090070 NOSIG RMK QFE732/0976
Conditions at: UACK (KOKSHETAU , KZ) observed 0000 UTC 16 June 2019
Temperature: 4.0°C (39°F)
Dewpoint: 2.0°C (36°F) [RH = 87%]
Pressure (altimeter): 29.73 inches Hg (1007.0 mb)
Winds: from the SW (230 degrees) at 7 MPH (6 knots; 3.1 m/s)
Visibility: 6 or more miles (10+ km)
Ceiling: ceiling and visibility are OK
Clouds: unknown
Weather: no significant weather observed at this time

METAR text: UACK 152330Z 24002MPS CAVOK 03/02 Q1007 R02/090070 NOSIG RMK QFE731/0975
Conditions at: UACK (KOKSHETAU , KZ) observed 2330 UTC 15 June 2019
Temperature: 3.0°C (37°F)
Dewpoint: 2.0°C (36°F) [RH = 93%]
Pressure (altimeter): 29.73 inches Hg (1007.0 mb)
Winds: from the WSW (240 degrees) at 5 MPH (4 knots; 2.1 m/s)
Visibility: 6 or more miles (10+ km)
Ceiling: ceiling and visibility are OK
Clouds: unknown
Weather: no significant weather observed at this time

METAR text: UACK 152300Z 17002MPS CAVOK 03/02 Q1007 R02/090070 NOSIG RMK QFE731/0975
Conditions at: UACK (KOKSHETAU , KZ) observed 2300 UTC 15 June 2019
Temperature: 3.0°C (37°F)
Dewpoint: 2.0°C (36°F) [RH = 93%]
Pressure (altimeter): 29.73 inches Hg (1007.0 mb)
Winds: from the S (170 degrees) at 5 MPH (4 knots; 2.1 m/s)
Visibility: 6 or more miles (10+ km)
Ceiling: ceiling and visibility are OK
Clouds: unknown
Weather: no significant weather observed at this time

METAR text: UACK 152230Z 18003MPS CAVOK 03/02 Q1007 NOSIG RMK QFE731/0975
Conditions at: UACK (KOKSHETAU , KZ) observed 2230 UTC 15 June 2019
Temperature: 3.0°C (37°F)
Dewpoint: 2.0°C (36°F) [RH = 93%]
Pressure (altimeter): 29.73 inches Hg (1007.0 mb)
Winds: from the S (180 degrees) at 7 MPH (6 knots; 3.1 m/s)
Visibility: 6 or more miles (10+ km)
Ceiling: ceiling and visibility are OK
Clouds: unknown
Weather: no significant weather observed at this time

METAR text: UACK 152200Z 17002MPS CAVOK 03/02 Q1007 NOSIG RMK QFE731/0975
Conditions at: UACK (KOKSHETAU , KZ) observed 2200 UTC 15 June 2019
Temperature: 3.0°C (37°F)
Dewpoint: 2.0°C (36°F) [RH = 93%]
Pressure (altimeter): 29.73 inches Hg (1007.0 mb)
Winds: from the S (170 degrees) at 5 MPH (4 knots; 2.1 m/s)
Visibility: 6 or more miles (10+ km)
Ceiling: ceiling and visibility are OK
Clouds: unknown
Weather: no significant weather observed at this time

METAR text: UACK 152130Z 23002MPS CAVOK 04/03 Q1007 NOSIG RMK QFE731/0975
Conditions at: UACK (KOKSHETAU , KZ) observed 2130 UTC 15 June 2019
Temperature: 4.0°C (39°F)
Dewpoint: 3.0°C (37°F) [RH = 93%]
Pressure (altimeter): 29.73 inches Hg (1007.0 mb)
Winds: from the SW (230 degrees) at 5 MPH (4 knots; 2.1 m/s)
Visibility: 6 or more miles (10+ km)
Ceiling: ceiling and visibility are OK
Clouds: unknown
Weather: no significant weather observed at this time

METAR text: UACK 152100Z 21002MPS CAVOK 04/04 Q1007 NOSIG RMK QFE731/0975
Conditions at: UACK (KOKSHETAU , KZ) observed 2100 UTC 15 June 2019
Temperature: 4.0°C (39°F)
Dewpoint: 4.0°C (39°F) [RH = 100%]
Pressure (altimeter): 29.73 inches Hg (1007.0 mb)
Winds: from the SSW (210 degrees) at 5 MPH (4 knots; 2.1 m/s)
Visibility: 6 or more miles (10+ km)
Ceiling: ceiling and visibility are OK
Clouds: unknown
Weather: no significant weather observed at this time

METAR text: UACK 152030Z VRB01MPS CAVOK 05/04 Q1007 NOSIG RMK QFE731/0975
Conditions at: UACK (KOKSHETAU , KZ) observed 2030 UTC 15 June 2019
Temperature: 5.0°C (41°F)
Dewpoint: 4.0°C (39°F) [RH = 93%]
Pressure (altimeter): 29.73 inches Hg (1007.0 mb)
Winds: variable direction winds at 2 MPH (2 knots; 1.0 m/s)
Visibility: 6 or more miles (10+ km)
Ceiling: ceiling and visibility are OK
Clouds: unknown
Weather: no significant weather observed at this time

METAR text: UACK 152000Z 00000MPS CAVOK 05/04 Q1007 NOSIG RMK QFE731/0975
Conditions at: UACK (KOKSHETAU , KZ) observed 2000 UTC 15 June 2019
Temperature: 5.0°C (41°F)
Dewpoint: 4.0°C (39°F) [RH = 93%]
Pressure (altimeter): 29.73 inches Hg (1007.0 mb)
Winds: calm
Visibility: 6 or more miles (10+ km)
Ceiling: ceiling and visibility are OK
Clouds: unknown
Weather: no significant weather observed at this time

METAR text: UACK 151500Z 11002MPS CAVOK 13/04 Q1007 R20/090070 NOSIG RMK QFE731/0975
Conditions at: UACK (KOKSHETAU , KZ) observed 1500 UTC 15 June 2019
Temperature: 13.0°C (55°F)
Dewpoint: 4.0°C (39°F) [RH = 54%]
Pressure (altimeter): 29.73 inches Hg (1007.0 mb)
Winds: from the ESE (110 degrees) at 5 MPH (4 knots; 2.1 m/s)
Visibility: 6 or more miles (10+ km)
Ceiling: ceiling and visibility are OK
Clouds: unknown
Weather: no significant weather observed at this time

METAR text: UACK 151430Z 11003MPS CAVOK 13/04 Q1007 R20/090070 NOSIG RMK QFE731/0975
Conditions at: UACK (KOKSHETAU , KZ) observed 1430 UTC 15 June 2019
Temperature: 13.0°C (55°F)
Dewpoint: 4.0°C (39°F) [RH = 54%]
Pressure (altimeter): 29.73 inches Hg (1007.0 mb)
Winds: from the ESE (110 degrees) at 7 MPH (6 knots; 3.1 m/s)
Visibility: 6 or more miles (10+ km)
Ceiling: ceiling and visibility are OK
Clouds: unknown
Weather: no significant weather observed at this time

METAR text: UACK 151400Z 12003MPS CAVOK 14/02 Q1007 R20/090070 NOSIG RMK QFE731/0975
Conditions at: UACK (KOKSHETAU , KZ) observed 1400 UTC 15 June 2019
Temperature: 14.0°C (57°F)
Dewpoint: 2.0°C (36°F) [RH = 44%]
Pressure (altimeter): 29.73 inches Hg (1007.0 mb)
Winds: from the ESE (120 degrees) at 7 MPH (6 knots; 3.1 m/s)
Visibility: 6 or more miles (10+ km)
Ceiling: ceiling and visibility are OK
Clouds: unknown
Weather: no significant weather observed at this time

METAR text: UACK 151330Z 11003MPS CAVOK 15/01 Q1007 R20/090070 NOSIG RMK QFE731/0975
Conditions at: UACK (KOKSHETAU , KZ) observed 1330 UTC 15 June 2019
Temperature: 15.0°C (59°F)
Dewpoint: 1.0°C (34°F) [RH = 39%]
Pressure (altimeter): 29.73 inches Hg (1007.0 mb)
Winds: from the ESE (110 degrees) at 7 MPH (6 knots; 3.1 m/s)
Visibility: 6 or more miles (10+ km)
Ceiling: ceiling and visibility are OK
Clouds: unknown
Weather: no significant weather observed at this time

METAR text: UACK 151300Z 12002MPS 090V170 CAVOK 15/01 Q1007 R20/090070 NOSIG RMK QFE731/0975
Conditions at: UACK (KOKSHETAU , KZ) observed 1300 UTC 15 June 2019
Temperature: 15.0°C (59°F)
Dewpoint: 1.0°C (34°F) [RH = 39%]
Pressure (altimeter): 29.73 inches Hg (1007.0 mb)
Winds: from the ESE (120 degrees) at 5 MPH (4 knots; 2.1 m/s)
Visibility: 6 or more miles (10+ km)
Ceiling: ceiling and visibility are OK
Clouds: unknown
Weather: no significant weather observed at this time

METAR text: UACK 151230Z 11003MPS 070V170 CAVOK 15/02 Q1007 R20/090070 NOSIG RMK QFE731/0975
Conditions at: UACK (KOKSHETAU , KZ) observed 1230 UTC 15 June 2019
Temperature: 15.0°C (59°F)
Dewpoint: 2.0°C (36°F) [RH = 41%]
Pressure (altimeter): 29.73 inches Hg (1007.0 mb)
Winds: from the ESE (110 degrees) at 7 MPH (6 knots; 3.1 m/s)
Visibility: 6 or more miles (10+ km)
Ceiling: ceiling and visibility are OK
Clouds: unknown
Weather: no significant weather observed at this time

METAR text: UACK 151200Z 08002MPS CAVOK 15/01 Q1007 R20/090070 NOSIG RMK QFE731/0975
Conditions at: UACK (KOKSHETAU , KZ) observed 1200 UTC 15 June 2019
Temperature: 15.0°C (59°F)
Dewpoint: 1.0°C (34°F) [RH = 39%]
Pressure (altimeter): 29.73 inches Hg (1007.0 mb)
Winds: from the E (80 degrees) at 5 MPH (4 knots; 2.1 m/s)
Visibility: 6 or more miles (10+ km)
Ceiling: ceiling and visibility are OK
Clouds: unknown
Weather: no significant weather observed at this time

METAR text: UACK 151130Z 12003MPS 040V160 CAVOK 15/02 Q1007 R20/090070 NOSIG RMK QFE731/0975
Conditions at: UACK (KOKSHETAU , KZ) observed 1130 UTC 15 June 2019
Temperature: 15.0°C (59°F)
Dewpoint: 2.0°C (36°F) [RH = 41%]
Pressure (altimeter): 29.73 inches Hg (1007.0 mb)
Winds: from the ESE (120 degrees) at 7 MPH (6 knots; 3.1 m/s)
Visibility: 6 or more miles (10+ km)
Ceiling: ceiling and visibility are OK
Clouds: unknown
Weather: no significant weather observed at this time

METAR text: UACK 151100Z 06004MPS 010V090 CAVOK 16/02 Q1007 R20/090070 NOSIG RMK QFE731/0975
Conditions at: UACK (KOKSHETAU , KZ) observed 1100 UTC 15 June 2019
Temperature: 16.0°C (61°F)
Dewpoint: 2.0°C (36°F) [RH = 39%]
Pressure (altimeter): 29.73 inches Hg (1007.0 mb)
Winds: from the ENE (60 degrees) at 9 MPH (8 knots; 4.1 m/s)
Visibility: 6 or more miles (10+ km)
Ceiling: ceiling and visibility are OK
Clouds: unknown
Weather: no significant weather observed at this time

METAR text: UACK 151030Z 11003MPS 080V160 CAVOK 15/02 Q1007 R20/090070 NOSIG RMK QFE731/0975
Conditions at: UACK (KOKSHETAU , KZ) observed 1030 UTC 15 June 2019
Temperature: 15.0°C (59°F)
Dewpoint: 2.0°C (36°F) [RH = 41%]
Pressure (altimeter): 29.73 inches Hg (1007.0 mb)
Winds: from the ESE (110 degrees) at 7 MPH (6 knots; 3.1 m/s)
Visibility: 6 or more miles (10+ km)
Ceiling: ceiling and visibility are OK
Clouds: unknown
Weather: no significant weather observed at this time

METAR text: UACK 151000Z 07002MPS CAVOK 15/01 Q1007 R20/090070 NOSIG RMK QFE731/0975
Conditions at: UACK (KOKSHETAU , KZ) observed 1000 UTC 15 June 2019
Temperature: 15.0°C (59°F)
Dewpoint: 1.0°C (34°F) [RH = 39%]
Pressure (altimeter): 29.73 inches Hg (1007.0 mb)
Winds: from the ENE (70 degrees) at 5 MPH (4 knots; 2.1 m/s)
Visibility: 6 or more miles (10+ km)
Ceiling: ceiling and visibility are OK
Clouds: unknown
Weather: no significant weather observed at this time

METAR text: UACK 150930Z 05003MPS CAVOK 14/01 Q1007 R20/090070 NOSIG RMK QFE731/0975
Conditions at: UACK (KOKSHETAU , KZ) observed 0930 UTC 15 June 2019
Temperature: 14.0°C (57°F)
Dewpoint: 1.0°C (34°F) [RH = 41%]
Pressure (altimeter): 29.73 inches Hg (1007.0 mb)
Winds: from the NE (50 degrees) at 7 MPH (6 knots; 3.1 m/s)
Visibility: 6 or more miles (10+ km)
Ceiling: ceiling and visibility are OK
Clouds: unknown
Weather: no significant weather observed at this time

METAR text: UACK 150900Z 03002MPS 310V080 CAVOK 14/02 Q1007 R20/090070 NOSIG RMK QFE731/0975
Conditions at: UACK (KOKSHETAU , KZ) observed 0900 UTC 15 June 2019
Temperature: 14.0°C (57°F)
Dewpoint: 2.0°C (36°F) [RH = 44%]
Pressure (altimeter): 29.73 inches Hg (1007.0 mb)
Winds: from the NNE (30 degrees) at 5 MPH (4 knots; 2.1 m/s)
Visibility: 6 or more miles (10+ km)
Ceiling: ceiling and visibility are OK
Clouds: unknown
Weather: no significant weather observed at this time

METAR text: UACK 150830Z 01002MPS CAVOK 15/01 Q1007 R20/090070 NOSIG RMK QFE732/0976
Conditions at: UACK (KOKSHETAU , KZ) observed 0830 UTC 15 June 2019
Temperature: 15.0°C (59°F)
Dewpoint: 1.0°C (34°F) [RH = 39%]
Pressure (altimeter): 29.73 inches Hg (1007.0 mb)
Winds: from the N (10 degrees) at 5 MPH (4 knots; 2.1 m/s)
Visibility: 6 or more miles (10+ km)
Ceiling: ceiling and visibility are OK
Clouds: unknown
Weather: no significant weather observed at this time

METAR text: UACK 150800Z VRB01MPS CAVOK 14/01 Q1007 R20/090070 NOSIG RMK QFE732/0976
Conditions at: UACK (KOKSHETAU , KZ) observed 0800 UTC 15 June 2019
Temperature: 14.0°C (57°F)
Dewpoint: 1.0°C (34°F) [RH = 41%]
Pressure (altimeter): 29.73 inches Hg (1007.0 mb)
Winds: variable direction winds at 2 MPH (2 knots; 1.0 m/s)
Visibility: 6 or more miles (10+ km)
Ceiling: ceiling and visibility are OK
Clouds: unknown
Weather: no significant weather observed at this time

METAR text: UACK 150730Z VRB01MPS CAVOK 14/01 Q1008 R20/090070 NOSIG RMK QFE732/0976
Conditions at: UACK (KOKSHETAU , KZ) observed 0730 UTC 15 June 2019
Temperature: 14.0°C (57°F)
Dewpoint: 1.0°C (34°F) [RH = 41%]
Pressure (altimeter): 29.76 inches Hg (1008.0 mb)
Winds: variable direction winds at 2 MPH (2 knots; 1.0 m/s)
Visibility: 6 or more miles (10+ km)
Ceiling: ceiling and visibility are OK
Clouds: unknown
Weather: no significant weather observed at this time

METAR text: UACK 150700Z 04002MPS 010V070 CAVOK 14/01 Q1008 R20/090070 NOSIG RMK QFE732/0976
Conditions at: UACK (KOKSHETAU , KZ) observed 0700 UTC 15 June 2019
Temperature: 14.0°C (57°F)
Dewpoint: 1.0°C (34°F) [RH = 41%]
Pressure (altimeter): 29.76 inches Hg (1008.0 mb)
Winds: from the NE (40 degrees) at 5 MPH (4 knots; 2.1 m/s)
Visibility: 6 or more miles (10+ km)
Ceiling: ceiling and visibility are OK
Clouds: unknown
Weather: no significant weather observed at this time

METAR text: UACK 150630Z 04003MPS CAVOK 13/03 Q1008 R20/090070 NOSIG RMK QFE732/0976
Conditions at: UACK (KOKSHETAU , KZ) observed 0630 UTC 15 June 2019
Temperature: 13.0°C (55°F)
Dewpoint: 3.0°C (37°F) [RH = 51%]
Pressure (altimeter): 29.76 inches Hg (1008.0 mb)
Winds: from the NE (40 degrees) at 7 MPH (6 knots; 3.1 m/s)
Visibility: 6 or more miles (10+ km)
Ceiling: ceiling and visibility are OK
Clouds: unknown
Weather: no significant weather observed at this time

METAR text: UACK 150600Z VRB01MPS CAVOK 13/01 Q1008 R20/090070 NOSIG RMK QFE732/0976
Conditions at: UACK (KOKSHETAU , KZ) observed 0600 UTC 15 June 2019
Temperature: 13.0°C (55°F)
Dewpoint: 1.0°C (34°F) [RH = 44%]
Pressure (altimeter): 29.76 inches Hg (1008.0 mb)
Winds: variable direction winds at 2 MPH (2 knots; 1.0 m/s)
Visibility: 6 or more miles (10+ km)
Ceiling: ceiling and visibility are OK
Clouds: unknown
Weather: no significant weather observed at this time

METAR text: UACK 150530Z 19002MPS 150V230 CAVOK 14/01 Q1008 R20/090070 NOSIG RMK QFE732/0976
Conditions at: UACK (KOKSHETAU , KZ) observed 0530 UTC 15 June 2019
Temperature: 14.0°C (57°F)
Dewpoint: 1.0°C (34°F) [RH = 41%]
Pressure (altimeter): 29.76 inches Hg (1008.0 mb)
Winds: from the S (190 degrees) at 5 MPH (4 knots; 2.1 m/s)
Visibility: 6 or more miles (10+ km)
Ceiling: ceiling and visibility are OK
Clouds: unknown
Weather: no significant weather observed at this time

Forecast for: UACK (KOKSHETAU , KZ)
Text: TAF UACK 161400Z 1615/1624 23007MPS 9999 SCT040 BKN100
Forecast period: 1500 UTC 16 June 2019 to 0000 UTC 17 June 2019
Forecast type: FROM: standard forecast or significant change
Winds: from the SW (230 degrees) at 16 MPH (14 knots; 7.2 m/s)
Visibility: 6 or more miles 10+ km)
Ceiling: 10000 feet AGL
Clouds: scattered clouds at 4000 feet AGL
broken clouds at 10000 feet AGL
Weather: no significant weather forecast for this period
Text: TEMPO 1615/1624 VRB02MPS 5000 -SHRA BKN025CB
Forecast period: 1500 UTC 16 June 2019 to 0000 UTC 17 June 2019
Forecast type: TEMPORARY: The following changes expected for less than half the time period
Winds: variable direction winds at 5 MPH (4 knots; 2.1 m/s)
Visibility: 3 miles (5 km)
Ceiling: 2500 feet AGL
Clouds: broken clouds at 2500 feet AGL
Weather: -SHRA  (light rain showers)